This is the latest recevied weather packets stored in our database for station/object K3SV. If no packets are shown the sender has not sent any weather packets the latest 10 day(s).
| Time | Temp. | Humidity | Pressure | Rain* | Wind** | Luminosity | Snow |
|---|---|---|---|---|---|---|---|
| 1777841233 | 26.67° C | 52% | 1015.2 hPa | 0 mm | - | 320 W/m² | - |
| 1777840931 | 26.67° C | 54% | 1015.6 hPa | 0 mm | - | 506 W/m² | - |
| 1777840628 | 25.56° C | 54% | 1015.6 hPa | 0 mm | - | 165 W/m² | - |
| 1777840326 | 26.11° C | 55% | 1015.5 hPa | 0 mm | - | 192 W/m² | - |
| 1777840023 | 26.67° C | 52% | 1015.7 hPa | 0 mm | - | 626 W/m² | - |
| 1777839720 | 26.11° C | 53% | 1015.7 hPa | 0 mm | - | 655 W/m² | - |
| 1777839417 | 25.56° C | 55% | 1015.9 hPa | 0 mm | - | 189 W/m² | - |
| 1777839115 | 26.11° C | 54% | 1016 hPa | 0 mm | - | 219 W/m² | - |
| 1777838805 | 26.11° C | 54% | 1015.9 hPa | 0 mm | - | 365 W/m² | - |
| 1777838502 | 27.78° C | 51% | 1016 hPa | 0 mm | - | 291 W/m² | - |
| 1777838199 | 27.22° C | 51% | 1016.2 hPa | 0 mm | - | 724 W/m² | - |
| 1777837896 | 26.67° C | 52% | 1016 hPa | 0 mm | - | 225 W/m² | - |
| 1777837593 | 26.11° C | 55% | 1016.1 hPa | 0 mm | - | 752 W/m² | - |
| 1777837288 | 25.56° C | 55% | 1016.1 hPa | 0 mm | - | 291 W/m² | - |
| 1777836986 | 26.11° C | 54% | 1016.1 hPa | 0 mm | - | 211 W/m² | - |
| 1777836681 | 26.67° C | 51% | 1016.4 hPa | 0 mm | - | 286 W/m² | - |
| 1777836377 | 26.67° C | 49% | 1016.5 hPa | 0 mm | - | 847 W/m² | - |
| 1777836072 | 25.56° C | 56% | 1016.6 hPa | 0 mm | - | 413 W/m² | - |
| 1777835770 | 25.56° C | 55% | 1016.8 hPa | 0 mm | - | 366 W/m² | - |
| 1777835466 | 25.56° C | 56% | 1016.9 hPa | 0 mm | - | 841 W/m² | - |
| 1777835164 | 26.11° C | 55% | 1016.6 hPa | 0 mm | - | 468 W/m² | - |
| 1777834860 | 25.56° C | 56% | 1017.1 hPa | 0 mm | - | 312 W/m² | - |
| 1777834557 | 26.11° C | 56% | 1017 hPa | 0 mm | - | 255 W/m² | - |
| 1777834257 | 26.67° C | 54% | 1017 hPa | 0 mm | - | 867 W/m² | - |
| 1777833952 | 25° C | 57% | 1017.1 hPa | 0 mm | - | 847 W/m² | - |
* Rain latest hour (hover to see other rain measurements)
** Current wind speed in m/s (hover to see current wind gust speed)